Terminal Aerodrome Forecast
Issued by NWS Charleston, WV

Current Version | Previous Version | Graphics & Text | Print | Product List | Glossary On
Versions: 1 2 3 4 5 6 7 8 9 10 11 12 13 14 15 16 17 18 19 20 21
000
FTUS41 KRLX 050538
TAFPKB
TAF
KPKB 050538Z 0506/0606 29004KT 6SM -SHRA SCT008 BKN015 OVC025
     FM050800 VRB03KT 3SM SHRA BR BKN008 OVC015
     FM051700 35004KT 3SM SHRA BR OVC012=

USA.gov is the U.S. government's official web portal to all federal, state and local government web resources and services.